sensor_id;sensor_type;location;lat;lon;timestamp;P1;durP1;ratioP1;P2;durP2;ratioP2
23434;SDS011;11890;45.380;11.028;2023-02-18T00:01:13;191.38;;;88.20;;
23434;SDS011;11890;45.380;11.028;2023-02-18T00:03:41;196.60;;;90.93;;
23434;SDS011;11890;45.380;11.028;2023-02-18T00:06:17;181.52;;;88.35;;
23434;SDS011;11890;45.380;11.028;2023-02-18T00:08:45;177.00;;;86.57;;
23434;SDS011;11890;45.380;11.028;2023-02-18T00:11:14;176.60;;;87.00;;
23434;SDS011;11890;45.380;11.028;2023-02-18T00:13:42;181.30;;;86.25;;
23434;SDS011;11890;45.380;11.028;2023-02-18T00:16:11;176.02;;;83.97;;
23434;SDS011;11890;45.380;11.028;2023-02-18T00:18:39;158.88;;;79.00;;
23434;SDS011;11890;45.380;11.028;2023-02-18T00:21:07;134.43;;;70.57;;
23434;SDS011;11890;45.380;11.028;2023-02-18T00:23:34;138.20;;;73.18;;
23434;SDS011;11890;45.380;11.028;2023-02-18T00:26:05;144.45;;;75.95;;
23434;SDS011;11890;45.380;11.028;2023-02-18T00:28:34;141.40;;;70.95;;
23434;SDS011;11890;45.380;11.028;2023-02-18T00:31:09;145.88;;;75.50;;
23434;SDS011;11890;45.380;11.028;2023-02-18T00:33:37;150.63;;;74.30;;
23434;SDS011;11890;45.380;11.028;2023-02-18T00:36:06;137.02;;;71.20;;
23434;SDS011;11890;45.380;11.028;2023-02-18T00:38:35;136.77;;;72.45;;
23434;SDS011;11890;45.380;11.028;2023-02-18T00:41:03;124.68;;;66.70;;
23434;SDS011;11890;45.380;11.028;2023-02-18T00:43:32;143.75;;;74.13;;
23434;SDS011;11890;45.380;11.028;2023-02-18T00:46:01;151.80;;;74.28;;
23434;SDS011;11890;45.380;11.028;2023-02-18T00:48:30;152.07;;;75.32;;
23434;SDS011;11890;45.380;11.028;2023-02-18T00:50:58;144.93;;;71.50;;
23434;SDS011;11890;45.380;11.028;2023-02-18T00:53:27;143.57;;;72.93;;
23434;SDS011;11890;45.380;11.028;2023-02-18T00:55:55;136.50;;;73.28;;
23434;SDS011;11890;45.380;11.028;2023-02-18T00:58:23;129.07;;;66.97;;
23434;SDS011;11890;45.380;11.028;2023-02-18T01:00:51;130.57;;;67.88;;
23434;SDS011;11890;45.380;11.028;2023-02-18T01:03:20;130.00;;;65.97;;
23434;SDS011;11890;45.380;11.028;2023-02-18T01:05:51;126.30;;;63.85;;
23434;SDS011;11890;45.380;11.028;2023-02-18T01:08:19;135.32;;;66.75;;
23434;SDS011;11890;45.380;11.028;2023-02-18T01:10:51;130.25;;;63.65;;
23434;SDS011;11890;45.380;11.028;2023-02-18T01:13:18;119.10;;;61.15;;
23434;SDS011;11890;45.380;11.028;2023-02-18T01:15:46;131.23;;;67.50;;
23434;SDS011;11890;45.380;11.028;2023-02-18T01:18:14;139.50;;;68.70;;
23434;SDS011;11890;45.380;11.028;2023-02-18T01:20:43;141.70;;;70.90;;
23434;SDS011;11890;45.380;11.028;2023-02-18T01:23:11;152.90;;;73.80;;
23434;SDS011;11890;45.380;11.028;2023-02-18T01:25:39;163.45;;;76.70;;
23434;SDS011;11890;45.380;11.028;2023-02-18T01:28:07;145.60;;;72.45;;
23434;SDS011;11890;45.380;11.028;2023-02-18T01:30:35;139.13;;;68.40;;
23434;SDS011;11890;45.380;11.028;2023-02-18T01:33:03;135.38;;;69.93;;
23434;SDS011;11890;45.380;11.028;2023-02-18T01:35:31;139.80;;;68.82;;
23434;SDS011;11890;45.380;11.028;2023-02-18T01:37:59;139.73;;;71.97;;
23434;SDS011;11890;45.380;11.028;2023-02-18T01:40:28;151.77;;;74.60;;
23434;SDS011;11890;45.380;11.028;2023-02-18T01:42:56;128.27;;;67.40;;
23434;SDS011;11890;45.380;11.028;2023-02-18T01:50:31;159.70;;;76.63;;
23434;SDS011;11890;45.380;11.028;2023-02-18T01:52:59;152.77;;;77.32;;
23434;SDS011;11890;45.380;11.028;2023-02-18T01:55:30;152.68;;;75.30;;
23434;SDS011;11890;45.380;11.028;2023-02-18T01:57:58;143.82;;;71.78;;
23434;SDS011;11890;45.380;11.028;2023-02-18T02:00:26;144.88;;;69.72;;
23434;SDS011;11890;45.380;11.028;2023-02-18T02:02:54;144.88;;;70.80;;
23434;SDS011;11890;45.380;11.028;2023-02-18T02:05:22;132.45;;;68.28;;
23434;SDS011;11890;45.380;11.028;2023-02-18T02:07:50;146.65;;;71.57;;
23434;SDS011;11890;45.380;11.028;2023-02-18T02:10:19;143.65;;;72.88;;
23434;SDS011;11890;45.380;11.028;2023-02-18T02:37:13;138.52;;;66.05;;
23434;SDS011;11890;45.380;11.028;2023-02-18T02:40:06;136.52;;;68.28;;
23434;SDS011;11890;45.380;11.028;2023-02-18T02:52:55;165.60;;;74.15;;
23434;SDS011;11890;45.380;11.028;2023-02-18T02:55:24;178.23;;;76.05;;
23434;SDS011;11890;45.380;11.028;2023-02-18T02:57:54;206.95;;;76.22;;
23434;SDS011;11890;45.380;11.028;2023-02-18T03:00:35;186.48;;;76.95;;
23434;SDS011;11890;45.380;11.028;2023-02-18T03:06:01;141.93;;;68.05;;
23434;SDS011;11890;45.380;11.028;2023-02-18T03:11:15;129.35;;;62.08;;
23434;SDS011;11890;45.380;11.028;2023-02-18T03:16:43;146.70;;;58.60;;
23434;SDS011;11890;45.380;11.028;2023-02-18T03:20:16;142.52;;;61.13;;
23434;SDS011;11890;45.380;11.028;2023-02-18T03:22:16;154.68;;;60.63;;
23434;SDS011;11890;45.380;11.028;2023-02-18T03:24:45;146.18;;;60.65;;
23434;SDS011;11890;45.380;11.028;2023-02-18T03:27:29;159.77;;;61.58;;
23434;SDS011;11890;45.380;11.028;2023-02-18T03:30:00;128.57;;;60.60;;
23434;SDS011;11890;45.380;11.028;2023-02-18T03:32:29;141.70;;;60.78;;
23434;SDS011;11890;45.380;11.028;2023-02-18T03:35:00;142.13;;;63.67;;
23434;SDS011;11890;45.380;11.028;2023-02-18T03:37:31;145.40;;;61.30;;
23434;SDS011;11890;45.380;11.028;2023-02-18T03:40:01;136.77;;;60.63;;
23434;SDS011;11890;45.380;11.028;2023-02-18T03:42:29;153.85;;;62.53;;
23434;SDS011;11890;45.380;11.028;2023-02-18T03:44:57;125.78;;;58.53;;
23434;SDS011;11890;45.380;11.028;2023-02-18T03:47:25;128.60;;;59.75;;
23434;SDS011;11890;45.380;11.028;2023-02-18T03:49:53;119.70;;;57.58;;
23434;SDS011;11890;45.380;11.028;2023-02-18T03:52:21;138.05;;;60.70;;
23434;SDS011;11890;45.380;11.028;2023-02-18T03:54:49;139.48;;;57.40;;
23434;SDS011;11890;45.380;11.028;2023-02-18T03:57:17;135.23;;;56.67;;
23434;SDS011;11890;45.380;11.028;2023-02-18T03:59:45;141.70;;;60.25;;
23434;SDS011;11890;45.380;11.028;2023-02-18T04:02:12;150.05;;;59.47;;
23434;SDS011;11890;45.380;11.028;2023-02-18T04:04:40;136.60;;;58.53;;
23434;SDS011;11890;45.380;11.028;2023-02-18T04:07:08;123.95;;;56.03;;
23434;SDS011;11890;45.380;11.028;2023-02-18T04:09:36;120.57;;;57.97;;
23434;SDS011;11890;45.380;11.028;2023-02-18T04:12:04;136.13;;;57.85;;
23434;SDS011;11890;45.380;11.028;2023-02-18T04:14:32;123.15;;;57.45;;
23434;SDS011;11890;45.380;11.028;2023-02-18T04:17:00;132.00;;;57.25;;
23434;SDS011;11890;45.380;11.028;2023-02-18T04:19:28;145.05;;;60.17;;
23434;SDS011;11890;45.380;11.028;2023-02-18T04:21:56;132.57;;;60.20;;
23434;SDS011;11890;45.380;11.028;2023-02-18T04:24:24;129.50;;;59.45;;
23434;SDS011;11890;45.380;11.028;2023-02-18T04:26:52;144.82;;;57.78;;
23434;SDS011;11890;45.380;11.028;2023-02-18T04:29:20;141.45;;;58.67;;
23434;SDS011;11890;45.380;11.028;2023-02-18T04:31:48;152.60;;;61.28;;
23434;SDS011;11890;45.380;11.028;2023-02-18T04:34:16;156.98;;;61.40;;
23434;SDS011;11890;45.380;11.028;2023-02-18T04:36:43;158.65;;;60.40;;
23434;SDS011;11890;45.380;11.028;2023-02-18T04:39:11;163.15;;;62.67;;
23434;SDS011;11890;45.380;11.028;2023-02-18T04:41:39;173.98;;;65.65;;
23434;SDS011;11890;45.380;11.028;2023-02-18T04:44:07;155.57;;;65.20;;
23434;SDS011;11890;45.380;11.028;2023-02-18T04:46:35;168.00;;;65.70;;
23434;SDS011;11890;45.380;11.028;2023-02-18T04:49:03;167.80;;;66.53;;
23434;SDS011;11890;45.380;11.028;2023-02-18T04:51:31;172.32;;;66.45;;
23434;SDS011;11890;45.380;11.028;2023-02-18T04:53:59;190.35;;;69.13;;
23434;SDS011;11890;45.380;11.028;2023-02-18T04:56:27;174.93;;;66.00;;
23434;SDS011;11890;45.380;11.028;2023-02-18T04:58:54;204.75;;;67.22;;
23434;SDS011;11890;45.380;11.028;2023-02-18T05:01:22;185.40;;;69.45;;
23434;SDS011;11890;45.380;11.028;2023-02-18T05:03:50;184.50;;;68.72;;
23434;SDS011;11890;45.380;11.028;2023-02-18T05:06:18;174.05;;;67.53;;
23434;SDS011;11890;45.380;11.028;2023-02-18T05:08:46;155.55;;;68.65;;
23434;SDS011;11890;45.380;11.028;2023-02-18T05:11:14;191.95;;;70.95;;
23434;SDS011;11890;45.380;11.028;2023-02-18T05:13:41;167.00;;;72.10;;
23434;SDS011;11890;45.380;11.028;2023-02-18T05:16:09;178.18;;;69.32;;
23434;SDS011;11890;45.380;11.028;2023-02-18T05:18:38;192.82;;;72.15;;
23434;SDS011;11890;45.380;11.028;2023-02-18T05:21:06;177.82;;;72.43;;
23434;SDS011;11890;45.380;11.028;2023-02-18T05:23:34;200.68;;;72.72;;
23434;SDS011;11890;45.380;11.028;2023-02-18T05:26:02;210.07;;;72.38;;
23434;SDS011;11890;45.380;11.028;2023-02-18T05:28:30;202.43;;;70.20;;
23434;SDS011;11890;45.380;11.028;2023-02-18T05:30:58;188.65;;;70.47;;
23434;SDS011;11890;45.380;11.028;2023-02-18T05:33:26;169.27;;;69.10;;
23434;SDS011;11890;45.380;11.028;2023-02-18T05:35:54;161.88;;;67.97;;
23434;SDS011;11890;45.380;11.028;2023-02-18T05:38:22;191.93;;;70.40;;
23434;SDS011;11890;45.380;11.028;2023-02-18T05:40:50;192.32;;;75.53;;
23434;SDS011;11890;45.380;11.028;2023-02-18T05:43:17;187.38;;;70.18;;
23434;SDS011;11890;45.380;11.028;2023-02-18T05:45:45;175.88;;;73.75;;
23434;SDS011;11890;45.380;11.028;2023-02-18T05:48:13;183.75;;;70.97;;
23434;SDS011;11890;45.380;11.028;2023-02-18T05:50:41;209.15;;;75.97;;
23434;SDS011;11890;45.380;11.028;2023-02-18T05:53:09;170.23;;;73.55;;
23434;SDS011;11890;45.380;11.028;2023-02-18T05:55:36;172.05;;;72.57;;
23434;SDS011;11890;45.380;11.028;2023-02-18T05:58:05;186.05;;;73.13;;
23434;SDS011;11890;45.380;11.028;2023-02-18T06:00:33;182.68;;;72.32;;
23434;SDS011;11890;45.380;11.028;2023-02-18T06:03:01;206.45;;;75.78;;
23434;SDS011;11890;45.380;11.028;2023-02-18T06:05:29;181.02;;;72.97;;
23434;SDS011;11890;45.380;11.028;2023-02-18T06:07:57;154.70;;;71.13;;
23434;SDS011;11890;45.380;11.028;2023-02-18T06:10:25;189.75;;;75.50;;
23434;SDS011;11890;45.380;11.028;2023-02-18T06:12:53;162.98;;;73.05;;
23434;SDS011;11890;45.380;11.028;2023-02-18T06:15:21;178.85;;;76.63;;
23434;SDS011;11890;45.380;11.028;2023-02-18T06:17:52;162.57;;;75.70;;
23434;SDS011;11890;45.380;11.028;2023-02-18T06:20:20;165.52;;;72.75;;
23434;SDS011;11890;45.380;11.028;2023-02-18T06:22:48;154.70;;;71.03;;
23434;SDS011;11890;45.380;11.028;2023-02-18T06:25:16;158.10;;;68.85;;
23434;SDS011;11890;45.380;11.028;2023-02-18T06:27:43;137.25;;;66.32;;
23434;SDS011;11890;45.380;11.028;2023-02-18T06:30:11;149.38;;;68.28;;
23434;SDS011;11890;45.380;11.028;2023-02-18T06:32:39;145.15;;;66.57;;
23434;SDS011;11890;45.380;11.028;2023-02-18T06:35:07;151.77;;;68.05;;
23434;SDS011;11890;45.380;11.028;2023-02-18T06:37:35;161.27;;;68.25;;
23434;SDS011;11890;45.380;11.028;2023-02-18T06:40:04;151.00;;;66.18;;
23434;SDS011;11890;45.380;11.028;2023-02-18T06:42:32;143.63;;;64.53;;
23434;SDS011;11890;45.380;11.028;2023-02-18T06:45:00;141.48;;;62.95;;
23434;SDS011;11890;45.380;11.028;2023-02-18T06:47:28;135.93;;;63.65;;
23434;SDS011;11890;45.380;11.028;2023-02-18T06:49:56;145.82;;;63.15;;
23434;SDS011;11890;45.380;11.028;2023-02-18T06:52:23;139.07;;;63.80;;
23434;SDS011;11890;45.380;11.028;2023-02-18T06:54:51;141.00;;;62.00;;
23434;SDS011;11890;45.380;11.028;2023-02-18T06:57:19;143.57;;;63.47;;
23434;SDS011;11890;45.380;11.028;2023-02-18T06:59:47;137.60;;;64.88;;
23434;SDS011;11890;45.380;11.028;2023-02-18T07:02:15;145.18;;;67.00;;
23434;SDS011;11890;45.380;11.028;2023-02-18T07:04:43;152.52;;;65.80;;
23434;SDS011;11890;45.380;11.028;2023-02-18T07:07:12;138.10;;;66.18;;
23434;SDS011;11890;45.380;11.028;2023-02-18T07:09:40;150.95;;;66.20;;
23434;SDS011;11890;45.380;11.028;2023-02-18T07:12:08;145.63;;;66.32;;
23434;SDS011;11890;45.380;11.028;2023-02-18T07:14:35;154.18;;;66.82;;
23434;SDS011;11890;45.380;11.028;2023-02-18T07:17:03;157.30;;;66.38;;
23434;SDS011;11890;45.380;11.028;2023-02-18T07:19:31;162.65;;;67.72;;
23434;SDS011;11890;45.380;11.028;2023-02-18T07:21:59;157.75;;;67.65;;
23434;SDS011;11890;45.380;11.028;2023-02-18T07:24:29;149.75;;;67.63;;
23434;SDS011;11890;45.380;11.028;2023-02-18T07:26:57;161.85;;;67.20;;
23434;SDS011;11890;45.380;11.028;2023-02-18T07:29:25;166.40;;;69.18;;
23434;SDS011;11890;45.380;11.028;2023-02-18T07:31:53;161.55;;;68.70;;
23434;SDS011;11890;45.380;11.028;2023-02-18T07:34:21;163.10;;;70.47;;
23434;SDS011;11890;45.380;11.028;2023-02-18T07:36:49;174.98;;;72.25;;
23434;SDS011;11890;45.380;11.028;2023-02-18T07:39:17;179.60;;;71.47;;
23434;SDS011;11890;45.380;11.028;2023-02-18T07:41:46;168.25;;;70.57;;
23434;SDS011;11890;45.380;11.028;2023-02-18T07:44:18;172.98;;;70.72;;
23434;SDS011;11890;45.380;11.028;2023-02-18T07:46:45;188.57;;;70.80;;
23434;SDS011;11890;45.380;11.028;2023-02-18T07:49:17;163.48;;;71.10;;
23434;SDS011;11890;45.380;11.028;2023-02-18T07:51:46;165.55;;;70.05;;
23434;SDS011;11890;45.380;11.028;2023-02-18T07:54:14;170.27;;;71.20;;
23434;SDS011;11890;45.380;11.028;2023-02-18T07:56:50;177.00;;;70.30;;
23434;SDS011;11890;45.380;11.028;2023-02-18T07:59:24;160.00;;;68.38;;
23434;SDS011;11890;45.380;11.028;2023-02-18T08:01:52;167.52;;;70.40;;
23434;SDS011;11890;45.380;11.028;2023-02-18T08:04:20;169.57;;;70.70;;
23434;SDS011;11890;45.380;11.028;2023-02-18T08:06:48;173.15;;;69.38;;
23434;SDS011;11890;45.380;11.028;2023-02-18T08:09:16;170.32;;;70.75;;
23434;SDS011;11890;45.380;11.028;2023-02-18T08:11:47;161.90;;;70.53;;
23434;SDS011;11890;45.380;11.028;2023-02-18T08:14:15;166.13;;;70.78;;
23434;SDS011;11890;45.380;11.028;2023-02-18T08:16:43;169.48;;;70.15;;
23434;SDS011;11890;45.380;11.028;2023-02-18T08:19:11;160.98;;;69.18;;
23434;SDS011;11890;45.380;11.028;2023-02-18T08:21:39;161.50;;;68.72;;
23434;SDS011;11890;45.380;11.028;2023-02-18T08:24:07;150.52;;;66.90;;
23434;SDS011;11890;45.380;11.028;2023-02-18T08:26:35;165.52;;;69.63;;
23434;SDS011;11890;45.380;11.028;2023-02-18T08:29:03;164.35;;;70.80;;
23434;SDS011;11890;45.380;11.028;2023-02-18T08:31:31;166.70;;;72.45;;
23434;SDS011;11890;45.380;11.028;2023-02-18T08:33:59;171.07;;;71.55;;
23434;SDS011;11890;45.380;11.028;2023-02-18T08:36:27;172.55;;;70.50;;
23434;SDS011;11890;45.380;11.028;2023-02-18T08:38:56;170.95;;;69.82;;
23434;SDS011;11890;45.380;11.028;2023-02-18T08:41:24;159.90;;;68.95;;
23434;SDS011;11890;45.380;11.028;2023-02-18T08:43:52;161.13;;;68.82;;
23434;SDS011;11890;45.380;11.028;2023-02-18T08:46:20;163.82;;;68.75;;
23434;SDS011;11890;45.380;11.028;2023-02-18T08:49:01;168.15;;;70.63;;
23434;SDS011;11890;45.380;11.028;2023-02-18T08:51:29;181.02;;;71.28;;
23434;SDS011;11890;45.380;11.028;2023-02-18T08:53:57;159.52;;;68.00;;
23434;SDS011;11890;45.380;11.028;2023-02-18T08:56:26;157.13;;;67.53;;
23434;SDS011;11890;45.380;11.028;2023-02-18T08:58:54;155.77;;;68.40;;
23434;SDS011;11890;45.380;11.028;2023-02-18T09:01:22;152.10;;;67.90;;
23434;SDS011;11890;45.380;11.028;2023-02-18T09:03:50;163.27;;;71.10;;
23434;SDS011;11890;45.380;11.028;2023-02-18T09:06:18;162.25;;;67.70;;
23434;SDS011;11890;45.380;11.028;2023-02-18T09:08:46;162.07;;;68.20;;
23434;SDS011;11890;45.380;11.028;2023-02-18T09:11:14;171.35;;;71.07;;
23434;SDS011;11890;45.380;11.028;2023-02-18T09:13:42;153.02;;;65.70;;
23434;SDS011;11890;45.380;11.028;2023-02-18T09:16:11;167.93;;;77.15;;
23434;SDS011;11890;45.380;11.028;2023-02-18T09:18:39;154.75;;;70.07;;
23434;SDS011;11890;45.380;11.028;2023-02-18T09:21:08;163.10;;;70.20;;
23434;SDS011;11890;45.380;11.028;2023-02-18T09:23:36;151.35;;;65.55;;
23434;SDS011;11890;45.380;11.028;2023-02-18T09:26:05;160.15;;;65.22;;
23434;SDS011;11890;45.380;11.028;2023-02-18T09:28:33;152.60;;;68.45;;
23434;SDS011;11890;45.380;11.028;2023-02-18T09:31:09;160.93;;;68.88;;
23434;SDS011;11890;45.380;11.028;2023-02-18T09:33:39;159.32;;;68.55;;
23434;SDS011;11890;45.380;11.028;2023-02-18T09:36:10;158.93;;;67.30;;
23434;SDS011;11890;45.380;11.028;2023-02-18T09:38:38;161.15;;;69.43;;
23434;SDS011;11890;45.380;11.028;2023-02-18T09:41:08;164.13;;;69.47;;
23434;SDS011;11890;45.380;11.028;2023-02-18T09:43:59;157.48;;;65.68;;
23434;SDS011;11890;45.380;11.028;2023-02-18T09:46:48;154.27;;;69.38;;
23434;SDS011;11890;45.380;11.028;2023-02-18T09:49:15;151.32;;;63.13;;
23434;SDS011;11890;45.380;11.028;2023-02-18T09:51:44;162.27;;;67.38;;
23434;SDS011;11890;45.380;11.028;2023-02-18T09:54:13;151.88;;;65.05;;
23434;SDS011;11890;45.380;11.028;2023-02-18T09:56:42;157.20;;;68.07;;
23434;SDS011;11890;45.380;11.028;2023-02-18T09:59:16;155.25;;;66.95;;
23434;SDS011;11890;45.380;11.028;2023-02-18T10:01:45;156.85;;;67.70;;
23434;SDS011;11890;45.380;11.028;2023-02-18T10:06:51;154.82;;;64.88;;
23434;SDS011;11890;45.380;11.028;2023-02-18T10:09:41;154.20;;;66.13;;
23434;SDS011;11890;45.380;11.028;2023-02-18T10:12:15;152.65;;;66.18;;
23434;SDS011;11890;45.380;11.028;2023-02-18T10:14:45;166.85;;;69.43;;
23434;SDS011;11890;45.380;11.028;2023-02-18T10:17:15;157.70;;;68.63;;
23434;SDS011;11890;45.380;11.028;2023-02-18T10:19:45;162.63;;;67.45;;
23434;SDS011;11890;45.380;11.028;2023-02-18T10:22:14;165.65;;;67.25;;
23434;SDS011;11890;45.380;11.028;2023-02-18T10:24:47;158.70;;;67.05;;
23434;SDS011;11890;45.380;11.028;2023-02-18T10:27:22;152.80;;;66.25;;
23434;SDS011;11890;45.380;11.028;2023-02-18T10:29:51;160.27;;;68.70;;
23434;SDS011;11890;45.380;11.028;2023-02-18T10:32:23;164.70;;;68.80;;
23434;SDS011;11890;45.380;11.028;2023-02-18T10:50:48;155.73;;;65.93;;
23434;SDS011;11890;45.380;11.028;2023-02-18T10:53:36;160.45;;;66.75;;
23434;SDS011;11890;45.380;11.028;2023-02-18T10:59:25;159.77;;;70.38;;
23434;SDS011;11890;45.380;11.028;2023-02-18T11:02:03;168.23;;;68.32;;
23434;SDS011;11890;45.380;11.028;2023-02-18T11:04:36;166.15;;;66.75;;
23434;SDS011;11890;45.380;11.028;2023-02-18T11:09:41;166.73;;;65.40;;
23434;SDS011;11890;45.380;11.028;2023-02-18T11:12:16;169.52;;;69.53;;
23434;SDS011;11890;45.380;11.028;2023-02-18T11:14:47;157.40;;;66.65;;
23434;SDS011;11890;45.380;11.028;2023-02-18T11:17:27;160.38;;;68.97;;
23434;SDS011;11890;45.380;11.028;2023-02-18T11:19:57;157.18;;;68.68;;
23434;SDS011;11890;45.380;11.028;2023-02-18T11:22:30;169.02;;;70.97;;
23434;SDS011;11890;45.380;11.028;2023-02-18T11:25:03;173.23;;;74.85;;
23434;SDS011;11890;45.380;11.028;2023-02-18T11:30:00;170.65;;;71.75;;
23434;SDS011;11890;45.380;11.028;2023-02-18T11:32:29;165.90;;;67.68;;
23434;SDS011;11890;45.380;11.028;2023-02-18T11:34:58;161.07;;;69.60;;
23434;SDS011;11890;45.380;11.028;2023-02-18T11:37:26;248.32;;;113.28;;
23434;SDS011;11890;45.380;11.028;2023-02-18T11:39:54;163.38;;;71.03;;
23434;SDS011;11890;45.380;11.028;2023-02-18T11:42:23;162.45;;;69.68;;
23434;SDS011;11890;45.380;11.028;2023-02-18T11:44:53;171.27;;;69.95;;
23434;SDS011;11890;45.380;11.028;2023-02-18T11:47:24;208.18;;;95.28;;
23434;SDS011;11890;45.380;11.028;2023-02-18T11:55:03;161.05;;;69.20;;
23434;SDS011;11890;45.380;11.028;2023-02-18T11:57:36;166.15;;;70.88;;
23434;SDS011;11890;45.380;11.028;2023-02-18T12:00:14;164.32;;;68.82;;
23434;SDS011;11890;45.380;11.028;2023-02-18T12:02:43;167.93;;;68.95;;
23434;SDS011;11890;45.380;11.028;2023-02-18T12:07:50;172.95;;;77.47;;
23434;SDS011;11890;45.380;11.028;2023-02-18T12:10:24;188.63;;;80.55;;
23434;SDS011;11890;45.380;11.028;2023-02-18T12:15:28;159.98;;;69.82;;
23434;SDS011;11890;45.380;11.028;2023-02-18T12:18:02;162.20;;;71.78;;
23434;SDS011;11890;45.380;11.028;2023-02-18T12:20:42;169.82;;;72.38;;
23434;SDS011;11890;45.380;11.028;2023-02-18T12:28:40;163.80;;;69.40;;
23434;SDS011;11890;45.380;11.028;2023-02-18T12:34:05;165.60;;;68.00;;
23434;SDS011;11890;45.380;11.028;2023-02-18T12:45:37;162.52;;;67.88;;
23434;SDS011;11890;45.380;11.028;2023-02-18T13:11:35;146.52;;;67.00;;
23434;SDS011;11890;45.380;11.028;2023-02-18T13:14:13;149.15;;;65.55;;
23434;SDS011;11890;45.380;11.028;2023-02-18T13:16:45;143.02;;;66.03;;
23434;SDS011;11890;45.380;11.028;2023-02-18T13:22:13;146.55;;;66.75;;
23434;SDS011;11890;45.380;11.028;2023-02-18T13:24:42;147.63;;;67.57;;
23434;SDS011;11890;45.380;11.028;2023-02-18T13:27:23;151.02;;;65.47;;
23434;SDS011;11890;45.380;11.028;2023-02-18T13:35:25;132.95;;;62.72;;
23434;SDS011;11890;45.380;11.028;2023-02-18T13:37:58;139.25;;;63.58;;
23434;SDS011;11890;45.380;11.028;2023-02-18T13:40:30;135.10;;;62.15;;
23434;SDS011;11890;45.380;11.028;2023-02-18T13:48:29;126.85;;;58.22;;
23434;SDS011;11890;45.380;11.028;2023-02-18T13:51:03;127.93;;;60.15;;
23434;SDS011;11890;45.380;11.028;2023-02-18T13:53:36;130.75;;;62.28;;
23434;SDS011;11890;45.380;11.028;2023-02-18T14:06:22;127.95;;;59.40;;
23434;SDS011;11890;45.380;11.028;2023-02-18T14:08:51;125.55;;;58.65;;
23434;SDS011;11890;45.380;11.028;2023-02-18T14:11:33;125.88;;;57.03;;
23434;SDS011;11890;45.380;11.028;2023-02-18T14:19:28;124.22;;;55.53;;
23434;SDS011;11890;45.380;11.028;2023-02-18T14:22:22;118.00;;;54.80;;
23434;SDS011;11890;45.380;11.028;2023-02-18T14:24:48;131.95;;;57.38;;
23434;SDS011;11890;45.380;11.028;2023-02-18T14:27:16;141.20;;;66.95;;
23434;SDS011;11890;45.380;11.028;2023-02-18T14:29:44;126.13;;;56.10;;
23434;SDS011;11890;45.380;11.028;2023-02-18T14:32:12;134.00;;;60.78;;
23434;SDS011;11890;45.380;11.028;2023-02-18T14:34:51;136.18;;;62.10;;
23434;SDS011;11890;45.380;11.028;2023-02-18T14:50:11;128.40;;;59.08;;
23434;SDS011;11890;45.380;11.028;2023-02-18T14:52:41;125.88;;;59.97;;
23434;SDS011;11890;45.380;11.028;2023-02-18T14:55:15;127.40;;;58.45;;
23434;SDS011;11890;45.380;11.028;2023-02-18T15:00:40;123.53;;;58.92;;
23434;SDS011;11890;45.380;11.028;2023-02-18T15:03:18;128.80;;;59.20;;
23434;SDS011;11890;45.380;11.028;2023-02-18T15:05:49;131.45;;;60.53;;
23434;SDS011;11890;45.380;11.028;2023-02-18T15:08:18;129.65;;;61.53;;
23434;SDS011;11890;45.380;11.028;2023-02-18T15:13:33;127.68;;;58.78;;
23434;SDS011;11890;45.380;11.028;2023-02-18T15:16:11;121.10;;;57.53;;
23434;SDS011;11890;45.380;11.028;2023-02-18T15:18:41;124.68;;;60.10;;
23434;SDS011;11890;45.380;11.028;2023-02-18T15:21:17;122.90;;;56.83;;
23434;SDS011;11890;45.380;11.028;2023-02-18T15:23:46;132.63;;;57.85;;
23434;SDS011;11890;45.380;11.028;2023-02-18T15:26:15;125.13;;;56.08;;
23434;SDS011;11890;45.380;11.028;2023-02-18T15:28:53;133.73;;;58.33;;
23434;SDS011;11890;45.380;11.028;2023-02-18T15:31:29;126.25;;;58.10;;
23434;SDS011;11890;45.380;11.028;2023-02-18T15:34:00;131.10;;;58.97;;
23434;SDS011;11890;45.380;11.028;2023-02-18T15:36:28;126.70;;;59.03;;
23434;SDS011;11890;45.380;11.028;2023-02-18T15:38:58;127.25;;;59.80;;
23434;SDS011;11890;45.380;11.028;2023-02-18T15:41:26;128.05;;;59.63;;
23434;SDS011;11890;45.380;11.028;2023-02-18T15:43:58;123.43;;;58.38;;
23434;SDS011;11890;45.380;11.028;2023-02-18T15:46:27;126.93;;;58.83;;
23434;SDS011;11890;45.380;11.028;2023-02-18T15:48:56;131.52;;;58.00;;
23434;SDS011;11890;45.380;11.028;2023-02-18T15:51:26;117.75;;;54.90;;
23434;SDS011;11890;45.380;11.028;2023-02-18T15:53:56;115.38;;;55.60;;
23434;SDS011;11890;45.380;11.028;2023-02-18T15:56:29;116.50;;;56.25;;
23434;SDS011;11890;45.380;11.028;2023-02-18T16:01:41;122.00;;;56.58;;
23434;SDS011;11890;45.380;11.028;2023-02-18T16:04:10;122.38;;;56.28;;
23434;SDS011;11890;45.380;11.028;2023-02-18T16:06:44;121.55;;;58.13;;
23434;SDS011;11890;45.380;11.028;2023-02-18T16:09:13;132.98;;;58.90;;
23434;SDS011;11890;45.380;11.028;2023-02-18T16:11:46;131.50;;;60.07;;
23434;SDS011;11890;45.380;11.028;2023-02-18T16:19:27;121.88;;;57.22;;
23434;SDS011;11890;45.380;11.028;2023-02-18T16:22:02;125.00;;;59.25;;
23434;SDS011;11890;45.380;11.028;2023-02-18T16:24:37;125.88;;;60.75;;
23434;SDS011;11890;45.380;11.028;2023-02-18T16:27:13;127.80;;;60.00;;
23434;SDS011;11890;45.380;11.028;2023-02-18T16:29:43;133.00;;;61.63;;
23434;SDS011;11890;45.380;11.028;2023-02-18T16:32:11;138.52;;;62.72;;
23434;SDS011;11890;45.380;11.028;2023-02-18T16:34:39;139.70;;;63.83;;
23434;SDS011;11890;45.380;11.028;2023-02-18T16:37:10;136.52;;;62.38;;
23434;SDS011;11890;45.380;11.028;2023-02-18T16:39:56;136.77;;;61.05;;
23434;SDS011;11890;45.380;11.028;2023-02-18T16:42:29;142.77;;;62.85;;
23434;SDS011;11890;45.380;11.028;2023-02-18T16:44:56;142.55;;;64.25;;
23434;SDS011;11890;45.380;11.028;2023-02-18T16:47:24;131.77;;;60.75;;
23434;SDS011;11890;45.380;11.028;2023-02-18T16:49:52;146.43;;;62.78;;
23434;SDS011;11890;45.380;11.028;2023-02-18T16:52:21;139.20;;;64.43;;
23434;SDS011;11890;45.380;11.028;2023-02-18T16:54:49;137.77;;;62.58;;
23434;SDS011;11890;45.380;11.028;2023-02-18T16:57:19;144.20;;;65.90;;
23434;SDS011;11890;45.380;11.028;2023-02-18T16:59:47;136.15;;;63.05;;
23434;SDS011;11890;45.380;11.028;2023-02-18T17:02:19;145.25;;;65.78;;
23434;SDS011;11890;45.380;11.028;2023-02-18T17:04:48;156.88;;;69.63;;
23434;SDS011;11890;45.380;11.028;2023-02-18T17:07:21;167.15;;;73.43;;
23434;SDS011;11890;45.380;11.028;2023-02-18T17:09:50;161.23;;;72.10;;
23434;SDS011;11890;45.380;11.028;2023-02-18T17:12:18;143.45;;;68.13;;
23434;SDS011;11890;45.380;11.028;2023-02-18T17:14:46;159.55;;;70.20;;